sensor_id;sensor_type;location;lat;lon;timestamp;pressure;altitude;pressure_sealevel;temperature;humidity
39083;BME280;24834;44.444;26.098;2022-08-19T04:06:40;100284.91;;;25.68;
39083;BME280;24834;44.444;26.098;2022-08-19T04:12:43;100286.09;;;25.53;
39083;BME280;24834;44.444;26.098;2022-08-19T04:18:46;100278.31;;;25.80;
39083;BME280;24834;44.444;26.098;2022-08-19T04:24:50;100281.41;;;25.79;
39083;BME280;24834;44.444;26.098;2022-08-19T04:30:54;100292.13;;;25.89;
39083;BME280;24834;44.444;26.098;2022-08-19T04:36:58;100285.94;;;25.96;
39083;BME280;24834;44.444;26.098;2022-08-19T04:43:02;100277.13;;;25.92;
39083;BME280;24834;44.444;26.098;2022-08-19T04:49:05;100278.13;;;26.19;
39083;BME280;24834;44.444;26.098;2022-08-19T06:05:12;100294.78;;;28.10;
39083;BME280;24834;44.444;26.098;2022-08-19T06:17:20;100297.06;;;28.65;
39083;BME280;24834;44.444;26.098;2022-08-19T06:23:27;100297.78;;;28.92;
39083;BME280;24834;44.444;26.098;2022-08-19T06:29:29;100300.22;;;29.06;
39083;BME280;24834;44.444;26.098;2022-08-19T06:35:39;100290.94;;;29.47;
39083;BME280;24834;44.444;26.098;2022-08-19T06:41:46;100294.16;;;29.77;
39083;BME280;24834;44.444;26.098;2022-08-19T06:47:57;100296.34;;;30.18;
39083;BME280;24834;44.444;26.098;2022-08-19T06:54:02;100294.75;;;30.53;
39083;BME280;24834;44.444;26.098;2022-08-19T07:00:19;100284.31;;;30.67;
39083;BME280;24834;44.444;26.098;2022-08-19T07:06:21;100287.41;;;31.11;
39083;BME280;24834;44.444;26.098;2022-08-19T07:12:44;100286.94;;;31.41;
39083;BME280;24834;44.444;26.098;2022-08-19T07:18:50;100282.41;;;31.75;
39083;BME280;24834;44.444;26.098;2022-08-19T07:24:53;100285.88;;;32.01;
39083;BME280;24834;44.444;26.098;2022-08-19T07:30:55;100280.09;;;32.12;
39083;BME280;24834;44.444;26.098;2022-08-19T07:36:58;100281.69;;;32.34;
39083;BME280;24834;44.444;26.098;2022-08-19T07:43:02;100284.44;;;32.56;
39083;BME280;24834;44.444;26.098;2022-08-19T07:49:08;100277.19;;;32.74;
39083;BME280;24834;44.444;26.098;2022-08-19T07:55:24;100267.84;;;32.63;
39083;BME280;24834;44.444;26.098;2022-08-19T08:01:41;100270.16;;;32.86;
39083;BME280;24834;44.444;26.098;2022-08-19T08:07:44;100261.53;;;33.18;
39083;BME280;24834;44.444;26.098;2022-08-19T08:14:06;100269.25;;;33.11;
39083;BME280;24834;44.444;26.098;2022-08-19T08:20:30;100260.13;;;33.35;
39083;BME280;24834;44.444;26.098;2022-08-19T08:26:38;100261.81;;;33.42;
39083;BME280;24834;44.444;26.098;2022-08-19T08:32:49;100257.22;;;33.30;
39083;BME280;24834;44.444;26.098;2022-08-19T08:38:52;100249.13;;;33.48;
39083;BME280;24834;44.444;26.098;2022-08-19T08:45:17;100258.09;;;33.66;
39083;BME280;24834;44.444;26.098;2022-08-19T08:51:29;100250.53;;;33.61;
39083;BME280;24834;44.444;26.098;2022-08-19T09:03:53;100235.00;;;33.98;
39083;BME280;24834;44.444;26.098;2022-08-19T09:10:15;100239.59;;;34.01;
39083;BME280;24834;44.444;26.098;2022-08-19T09:16:27;100234.56;;;34.18;
39083;BME280;24834;44.444;26.098;2022-08-19T09:22:30;100234.72;;;34.23;
39083;BME280;24834;44.444;26.098;2022-08-19T09:28:32;100235.03;;;34.16;
39083;BME280;24834;44.444;26.098;2022-08-19T09:34:41;100228.50;;;34.05;
39083;BME280;24834;44.444;26.098;2022-08-19T09:40:51;100228.06;;;34.06;
39083;BME280;24834;44.444;26.098;2022-08-19T09:46:53;100231.06;;;34.08;
39083;BME280;24834;44.444;26.098;2022-08-19T09:52:55;100223.50;;;34.48;
39083;BME280;24834;44.444;26.098;2022-08-19T09:59:02;100211.00;;;34.65;
39083;BME280;24834;44.444;26.098;2022-08-19T10:05:07;100214.78;;;34.77;
39083;BME280;24834;44.444;26.098;2022-08-19T10:11:34;100205.81;;;34.76;
39083;BME280;24834;44.444;26.098;2022-08-19T10:17:42;100202.47;;;34.63;
39083;BME280;24834;44.444;26.098;2022-08-19T10:23:58;100203.38;;;35.20;
39083;BME280;24834;44.444;26.098;2022-08-19T10:30:01;100197.28;;;34.92;
39083;BME280;24834;44.444;26.098;2022-08-19T10:36:10;100195.50;;;35.13;
39083;BME280;24834;44.444;26.098;2022-08-19T10:42:14;100185.34;;;35.13;
39083;BME280;24834;44.444;26.098;2022-08-19T10:48:17;100188.81;;;35.85;
39083;BME280;24834;44.444;26.098;2022-08-19T10:54:20;100175.84;;;36.09;
39083;BME280;24834;44.444;26.098;2022-08-19T11:00:34;100167.91;;;36.11;
39083;BME280;24834;44.444;26.098;2022-08-19T11:06:40;100177.34;;;36.39;
39083;BME280;24834;44.444;26.098;2022-08-19T11:12:46;100172.84;;;36.07;
39083;BME280;24834;44.444;26.098;2022-08-19T11:18:53;100172.06;;;36.21;
39083;BME280;24834;44.444;26.098;2022-08-19T11:25:02;100159.69;;;36.11;
39083;BME280;24834;44.444;26.098;2022-08-19T11:31:20;100160.34;;;36.20;
39083;BME280;24834;44.444;26.098;2022-08-19T11:37:25;100146.06;;;36.60;
39083;BME280;24834;44.444;26.098;2022-08-19T11:43:29;100141.41;;;36.66;
39083;BME280;24834;44.444;26.098;2022-08-19T11:49:37;100142.19;;;36.67;
39083;BME280;24834;44.444;26.098;2022-08-19T11:55:42;100134.06;;;36.72;
39083;BME280;24834;44.444;26.098;2022-08-19T12:01:47;100134.50;;;36.07;
39083;BME280;24834;44.444;26.098;2022-08-19T12:07:52;100132.84;;;36.59;
39083;BME280;24834;44.444;26.098;2022-08-19T12:13:56;100115.69;;;36.78;
39083;BME280;24834;44.444;26.098;2022-08-19T12:20:01;100115.16;;;36.60;
39083;BME280;24834;44.444;26.098;2022-08-19T12:26:06;100113.41;;;36.42;
39083;BME280;24834;44.444;26.098;2022-08-19T12:32:10;100105.63;;;37.30;
39083;BME280;24834;44.444;26.098;2022-08-19T12:38:13;100103.06;;;37.46;
39083;BME280;24834;44.444;26.098;2022-08-19T12:44:17;100095.16;;;37.08;
39083;BME280;24834;44.444;26.098;2022-08-19T12:50:20;100099.09;;;37.47;
39083;BME280;24834;44.444;26.098;2022-08-19T12:56:23;100090.97;;;36.58;
39083;BME280;24834;44.444;26.098;2022-08-19T13:02:25;100092.69;;;36.90;
39083;BME280;24834;44.444;26.098;2022-08-19T13:08:28;100084.31;;;37.19;
39083;BME280;24834;44.444;26.098;2022-08-19T13:14:30;100079.75;;;36.76;
39083;BME280;24834;44.444;26.098;2022-08-19T13:20:36;100076.50;;;36.38;
39083;BME280;24834;44.444;26.098;2022-08-19T13:26:38;100090.63;;;35.78;
39083;BME280;24834;44.444;26.098;2022-08-19T13:32:40;100089.50;;;35.84;
39083;BME280;24834;44.444;26.098;2022-08-19T13:39:00;100082.78;;;35.56;
39083;BME280;24834;44.444;26.098;2022-08-19T13:45:03;100078.22;;;36.06;
39083;BME280;24834;44.444;26.098;2022-08-19T13:51:08;100081.19;;;36.08;
39083;BME280;24834;44.444;26.098;2022-08-19T13:57:13;100079.88;;;36.32;
39083;BME280;24834;44.444;26.098;2022-08-19T14:03:15;100072.41;;;36.33;
39083;BME280;24834;44.444;26.098;2022-08-19T14:09:17;100069.19;;;36.69;
39083;BME280;24834;44.444;26.098;2022-08-19T14:15:19;100074.25;;;36.91;
39083;BME280;24834;44.444;26.098;2022-08-19T14:21:23;100059.66;;;36.79;
39083;BME280;24834;44.444;26.098;2022-08-19T14:27:27;100060.66;;;36.82;
39083;BME280;24834;44.444;26.098;2022-08-19T14:33:29;100064.63;;;37.01;
39083;BME280;24834;44.444;26.098;2022-08-19T14:39:31;100071.69;;;36.67;
39083;BME280;24834;44.444;26.098;2022-08-19T14:45:39;100070.56;;;36.59;
39083;BME280;24834;44.444;26.098;2022-08-19T14:51:41;100072.19;;;36.51;
39083;BME280;24834;44.444;26.098;2022-08-19T14:57:44;100065.84;;;36.45;
39083;BME280;24834;44.444;26.098;2022-08-19T15:03:48;100060.75;;;36.38;
39083;BME280;24834;44.444;26.098;2022-08-19T15:09:51;100058.34;;;36.40;
39083;BME280;24834;44.444;26.098;2022-08-19T15:15:54;100060.72;;;36.18;
39083;BME280;24834;44.444;26.098;2022-08-19T15:21:58;100052.22;;;36.01;
39083;BME280;24834;44.444;26.098;2022-08-19T15:28:00;100046.09;;;35.92;
39083;BME280;24834;44.444;26.098;2022-08-19T15:34:03;100041.09;;;36.19;
39083;BME280;24834;44.444;26.098;2022-08-19T15:40:08;100039.78;;;36.00;
39083;BME280;24834;44.444;26.098;2022-08-19T15:46:10;100036.28;;;35.85;
39083;BME280;24834;44.444;26.098;2022-08-19T15:52:19;100038.00;;;35.83;
39083;BME280;24834;44.444;26.098;2022-08-19T15:58:22;100044.41;;;35.80;
39083;BME280;24834;44.444;26.098;2022-08-19T16:04:42;100039.88;;;35.62;
39083;BME280;24834;44.444;26.098;2022-08-19T16:11:02;100041.63;;;35.51;
39083;BME280;24834;44.444;26.098;2022-08-19T16:17:04;100039.41;;;35.26;
39083;BME280;24834;44.444;26.098;2022-08-19T16:23:07;100038.38;;;34.99;
39083;BME280;24834;44.444;26.098;2022-08-19T16:29:10;100043.38;;;34.77;
39083;BME280;24834;44.444;26.098;2022-08-19T16:35:13;100038.00;;;34.59;
39083;BME280;24834;44.444;26.098;2022-08-19T16:41:16;100040.28;;;34.19;
39083;BME280;24834;44.444;26.098;2022-08-19T16:47:19;100040.16;;;33.86;
39083;BME280;24834;44.444;26.098;2022-08-19T16:53:23;100044.59;;;33.57;
39083;BME280;24834;44.444;26.098;2022-08-19T16:59:35;100050.81;;;33.39;
39083;BME280;24834;44.444;26.098;2022-08-19T17:05:44;100058.19;;;33.21;
39083;BME280;24834;44.444;26.098;2022-08-19T17:11:48;100053.59;;;33.00;
39083;BME280;24834;44.444;26.098;2022-08-19T17:17:50;100067.91;;;32.82;
39083;BME280;24834;44.444;26.098;2022-08-19T17:23:55;100071.31;;;32.64;
39083;BME280;24834;44.444;26.098;2022-08-19T17:29:57;100086.69;;;32.49;
39083;BME280;24834;44.444;26.098;2022-08-19T17:36:01;100091.44;;;32.36;
39083;BME280;24834;44.444;26.098;2022-08-19T17:42:06;100098.47;;;32.25;
39083;BME280;24834;44.444;26.098;2022-08-19T17:48:10;100107.88;;;32.11;
39083;BME280;24834;44.444;26.098;2022-08-19T17:54:15;100117.81;;;32.05;
39083;BME280;24834;44.444;26.098;2022-08-19T18:00:19;100121.00;;;31.91;
39083;BME280;24834;44.444;26.098;2022-08-19T18:06:22;100131.72;;;31.73;
39083;BME280;24834;44.444;26.098;2022-08-19T18:12:24;100142.41;;;31.67;
39083;BME280;24834;44.444;26.098;2022-08-19T18:18:29;100154.81;;;31.56;
39083;BME280;24834;44.444;26.098;2022-08-19T18:24:31;100155.03;;;31.49;
39083;BME280;24834;44.444;26.098;2022-08-19T18:30:35;100167.22;;;31.44;
39083;BME280;24834;44.444;26.098;2022-08-19T18:36:37;100165.69;;;31.31;
39083;BME280;24834;44.444;26.098;2022-08-19T18:42:55;100169.59;;;31.17;
39083;BME280;24834;44.444;26.098;2022-08-19T18:49:28;100179.03;;;31.13;
39083;BME280;24834;44.444;26.098;2022-08-19T18:55:30;100181.31;;;31.02;
39083;BME280;24834;44.444;26.098;2022-08-19T19:01:35;100189.56;;;30.98;
39083;BME280;24834;44.444;26.098;2022-08-19T19:07:40;100183.47;;;30.94;
39083;BME280;24834;44.444;26.098;2022-08-19T19:13:42;100190.72;;;30.84;
39083;BME280;24834;44.444;26.098;2022-08-19T19:19:47;100181.69;;;30.75;
39083;BME280;24834;44.444;26.098;2022-08-19T19:25:50;100183.16;;;30.63;
39083;BME280;24834;44.444;26.098;2022-08-19T19:31:53;100178.59;;;30.60;
39083;BME280;24834;44.444;26.098;2022-08-19T19:38:00;100183.84;;;30.51;
39083;BME280;24834;44.444;26.098;2022-08-19T19:44:04;100186.47;;;30.42;
39083;BME280;24834;44.444;26.098;2022-08-19T19:50:26;100185.84;;;30.35;
39083;BME280;24834;44.444;26.098;2022-08-19T19:56:34;100184.97;;;30.25;
39083;BME280;24834;44.444;26.098;2022-08-19T20:02:36;100189.00;;;30.17;
39083;BME280;24834;44.444;26.098;2022-08-19T20:08:39;100197.09;;;30.05;
39083;BME280;24834;44.444;26.098;2022-08-19T20:15:00;100205.31;;;30.01;
39083;BME280;24834;44.444;26.098;2022-08-19T20:21:02;100207.00;;;29.95;
39083;BME280;24834;44.444;26.098;2022-08-19T20:27:04;100204.09;;;29.86;
39083;BME280;24834;44.444;26.098;2022-08-19T20:33:07;100207.25;;;29.84;
39083;BME280;24834;44.444;26.098;2022-08-19T20:39:10;100208.91;;;29.78;
39083;BME280;24834;44.444;26.098;2022-08-19T20:45:16;100216.81;;;29.73;
39083;BME280;24834;44.444;26.098;2022-08-19T20:51:33;100218.00;;;29.72;
39083;BME280;24834;44.444;26.098;2022-08-19T20:57:37;100217.56;;;29.73;
39083;BME280;24834;44.444;26.098;2022-08-19T21:03:40;100213.00;;;29.70;
39083;BME280;24834;44.444;26.098;2022-08-19T21:09:44;100208.25;;;29.74;
39083;BME280;24834;44.444;26.098;2022-08-19T21:15:47;100218.47;;;29.67;
39083;BME280;24834;44.444;26.098;2022-08-19T21:21:50;100211.53;;;29.66;
39083;BME280;24834;44.444;26.098;2022-08-19T21:27:52;100211.19;;;29.64;
39083;BME280;24834;44.444;26.098;2022-08-19T21:33:54;100217.44;;;29.61;
39083;BME280;24834;44.444;26.098;2022-08-19T21:39:57;100223.63;;;29.61;
39083;BME280;24834;44.444;26.098;2022-08-19T21:45:59;100217.13;;;29.59;
39083;BME280;24834;44.444;26.098;2022-08-19T21:52:02;100217.69;;;29.50;
39083;BME280;24834;44.444;26.098;2022-08-19T21:58:05;100219.25;;;29.51;
39083;BME280;24834;44.444;26.098;2022-08-19T22:04:12;100210.34;;;29.51;
39083;BME280;24834;44.444;26.098;2022-08-19T22:10:14;100203.53;;;29.43;
39083;BME280;24834;44.444;26.098;2022-08-19T22:16:16;100198.97;;;29.40;
39083;BME280;24834;44.444;26.098;2022-08-19T22:22:24;100199.78;;;29.37;
39083;BME280;24834;44.444;26.098;2022-08-19T22:28:26;100199.66;;;29.24;
39083;BME280;24834;44.444;26.098;2022-08-19T22:34:28;100201.78;;;29.17;
39083;BME280;24834;44.444;26.098;2022-08-19T22:40:32;100211.47;;;29.14;
39083;BME280;24834;44.444;26.098;2022-08-19T22:46:35;100200.63;;;29.14;
39083;BME280;24834;44.444;26.098;2022-08-19T22:52:37;100192.25;;;29.08;
39083;BME280;24834;44.444;26.098;2022-08-19T22:58:52;100188.44;;;28.86;
39083;BME280;24834;44.444;26.098;2022-08-19T23:04:54;100188.47;;;28.83;
39083;BME280;24834;44.444;26.098;2022-08-19T23:10:57;100183.28;;;28.72;
39083;BME280;24834;44.444;26.098;2022-08-19T23:16:59;100197.19;;;28.51;
39083;BME280;24834;44.444;26.098;2022-08-19T23:23:07;100194.34;;;28.35;
39083;BME280;24834;44.444;26.098;2022-08-19T23:29:10;100175.84;;;28.34;
39083;BME280;24834;44.444;26.098;2022-08-19T23:35:36;100179.66;;;28.36;
39083;BME280;24834;44.444;26.098;2022-08-19T23:41:41;100173.97;;;28.31;
39083;BME280;24834;44.444;26.098;2022-08-19T23:47:44;100182.41;;;28.33;
39083;BME280;24834;44.444;26.098;2022-08-19T23:53:46;100171.28;;;28.31;
39083;BME280;24834;44.444;26.098;2022-08-19T23:59:48;100160.84;;;28.29;
